sensor_id;sensor_type;location;lat;lon;timestamp;P1;durP1;ratioP1;P2;durP2;ratioP2
11604;SDS011;5858;43.076;25.626;2023-03-01T00:01:18;3.93;;;2.80;;
11604;SDS011;5858;43.076;25.626;2023-03-01T00:03:47;3.40;;;2.83;;
11604;SDS011;5858;43.076;25.626;2023-03-01T00:06:14;5.20;;;3.13;;
11604;SDS011;5858;43.076;25.626;2023-03-01T00:08:43;3.33;;;2.80;;
11604;SDS011;5858;43.076;25.626;2023-03-01T00:11:11;2.83;;;2.53;;
11604;SDS011;5858;43.076;25.626;2023-03-01T00:13:40;3.93;;;2.50;;
11604;SDS011;5858;43.076;25.626;2023-03-01T00:16:11;2.90;;;2.53;;
11604;SDS011;5858;43.076;25.626;2023-03-01T00:18:43;2.73;;;2.10;;
11604;SDS011;5858;43.076;25.626;2023-03-01T00:21:10;2.63;;;2.37;;
11604;SDS011;5858;43.076;25.626;2023-03-01T00:23:38;3.13;;;2.10;;
11604;SDS011;5858;43.076;25.626;2023-03-01T00:26:07;5.07;;;2.70;;
11604;SDS011;5858;43.076;25.626;2023-03-01T00:28:36;5.23;;;2.67;;
11604;SDS011;5858;43.076;25.626;2023-03-01T00:31:09;3.13;;;2.40;;
11604;SDS011;5858;43.076;25.626;2023-03-01T00:33:37;2.53;;;2.20;;
11604;SDS011;5858;43.076;25.626;2023-03-01T00:36:10;4.67;;;3.83;;
11604;SDS011;5858;43.076;25.626;2023-03-01T00:38:45;5.30;;;4.03;;
11604;SDS011;5858;43.076;25.626;2023-03-01T00:41:17;4.80;;;4.20;;
11604;SDS011;5858;43.076;25.626;2023-03-01T00:43:45;5.47;;;4.20;;
11604;SDS011;5858;43.076;25.626;2023-03-01T00:46:13;6.67;;;5.60;;
11604;SDS011;5858;43.076;25.626;2023-03-01T00:48:42;7.00;;;6.20;;
11604;SDS011;5858;43.076;25.626;2023-03-01T00:51:10;6.57;;;5.87;;
11604;SDS011;5858;43.076;25.626;2023-03-01T00:53:38;7.73;;;5.33;;
11604;SDS011;5858;43.076;25.626;2023-03-01T00:56:06;6.43;;;5.80;;
11604;SDS011;5858;43.076;25.626;2023-03-01T00:58:37;7.07;;;5.90;;
11604;SDS011;5858;43.076;25.626;2023-03-01T01:01:07;6.37;;;5.70;;
11604;SDS011;5858;43.076;25.626;2023-03-01T01:03:42;7.60;;;5.90;;
11604;SDS011;5858;43.076;25.626;2023-03-01T01:06:13;6.60;;;5.13;;
11604;SDS011;5858;43.076;25.626;2023-03-01T01:08:40;8.30;;;7.23;;
11604;SDS011;5858;43.076;25.626;2023-03-01T01:11:08;8.63;;;7.70;;
11604;SDS011;5858;43.076;25.626;2023-03-01T01:13:37;8.07;;;7.27;;
11604;SDS011;5858;43.076;25.626;2023-03-01T01:16:05;9.60;;;8.10;;
11604;SDS011;5858;43.076;25.626;2023-03-01T01:18:32;9.30;;;7.67;;
11604;SDS011;5858;43.076;25.626;2023-03-01T01:21:02;6.20;;;5.37;;
11604;SDS011;5858;43.076;25.626;2023-03-01T01:23:31;6.63;;;5.60;;
11604;SDS011;5858;43.076;25.626;2023-03-01T01:26:02;5.13;;;4.50;;
11604;SDS011;5858;43.076;25.626;2023-03-01T01:28:30;6.87;;;5.83;;
11604;SDS011;5858;43.076;25.626;2023-03-01T01:30:59;4.03;;;3.63;;
11604;SDS011;5858;43.076;25.626;2023-03-01T01:33:26;6.03;;;4.40;;
11604;SDS011;5858;43.076;25.626;2023-03-01T01:35:54;4.83;;;4.43;;
11604;SDS011;5858;43.076;25.626;2023-03-01T01:38:21;3.50;;;3.13;;
11604;SDS011;5858;43.076;25.626;2023-03-01T01:40:48;3.33;;;3.00;;
11604;SDS011;5858;43.076;25.626;2023-03-01T01:43:20;3.43;;;3.13;;
11604;SDS011;5858;43.076;25.626;2023-03-01T01:45:49;3.10;;;2.80;;
11604;SDS011;5858;43.076;25.626;2023-03-01T01:48:20;4.63;;;3.80;;
11604;SDS011;5858;43.076;25.626;2023-03-01T01:50:52;3.47;;;3.13;;
11604;SDS011;5858;43.076;25.626;2023-03-01T01:53:24;4.97;;;4.13;;
11604;SDS011;5858;43.076;25.626;2023-03-01T01:55:54;3.07;;;2.77;;
11604;SDS011;5858;43.076;25.626;2023-03-01T01:58:25;3.13;;;2.80;;
11604;SDS011;5858;43.076;25.626;2023-03-01T02:00:56;3.60;;;3.30;;
11604;SDS011;5858;43.076;25.626;2023-03-01T02:03:27;2.50;;;2.20;;
11604;SDS011;5858;43.076;25.626;2023-03-01T02:06:00;3.50;;;2.90;;
11604;SDS011;5858;43.076;25.626;2023-03-01T02:08:30;3.13;;;2.20;;
11604;SDS011;5858;43.076;25.626;2023-03-01T02:11:00;3.30;;;2.97;;
11604;SDS011;5858;43.076;25.626;2023-03-01T02:13:30;4.00;;;3.60;;
11604;SDS011;5858;43.076;25.626;2023-03-01T02:15:58;3.90;;;2.70;;
11604;SDS011;5858;43.076;25.626;2023-03-01T02:18:30;2.50;;;2.20;;
11604;SDS011;5858;43.076;25.626;2023-03-01T02:21:10;4.43;;;3.83;;
11604;SDS011;5858;43.076;25.626;2023-03-01T02:23:50;4.07;;;3.67;;
11604;SDS011;5858;43.076;25.626;2023-03-01T02:26:20;4.67;;;3.80;;
11604;SDS011;5858;43.076;25.626;2023-03-01T02:28:53;2.90;;;2.60;;
11604;SDS011;5858;43.076;25.626;2023-03-01T02:31:20;3.90;;;3.50;;
11604;SDS011;5858;43.076;25.626;2023-03-01T02:34:05;4.07;;;3.60;;
11604;SDS011;5858;43.076;25.626;2023-03-01T02:36:35;4.80;;;3.50;;
11604;SDS011;5858;43.076;25.626;2023-03-01T02:39:05;4.10;;;3.70;;
11604;SDS011;5858;43.076;25.626;2023-03-01T02:41:41;4.77;;;3.20;;
11604;SDS011;5858;43.076;25.626;2023-03-01T02:44:12;5.03;;;4.53;;
11604;SDS011;5858;43.076;25.626;2023-03-01T02:46:45;4.60;;;4.20;;
11604;SDS011;5858;43.076;25.626;2023-03-01T02:49:18;4.90;;;4.37;;
11604;SDS011;5858;43.076;25.626;2023-03-01T02:51:50;3.83;;;3.43;;
11604;SDS011;5858;43.076;25.626;2023-03-01T02:54:28;4.00;;;3.60;;
11604;SDS011;5858;43.076;25.626;2023-03-01T02:57:00;3.77;;;3.47;;
11604;SDS011;5858;43.076;25.626;2023-03-01T02:59:30;3.80;;;3.47;;
11604;SDS011;5858;43.076;25.626;2023-03-01T03:02:04;5.17;;;3.03;;
11604;SDS011;5858;43.076;25.626;2023-03-01T03:04:31;3.60;;;3.17;;
11604;SDS011;5858;43.076;25.626;2023-03-01T03:06:58;3.83;;;3.43;;
11604;SDS011;5858;43.076;25.626;2023-03-01T03:09:25;3.87;;;3.40;;
11604;SDS011;5858;43.076;25.626;2023-03-01T03:11:53;3.77;;;2.83;;
11604;SDS011;5858;43.076;25.626;2023-03-01T03:14:20;3.30;;;3.00;;
11604;SDS011;5858;43.076;25.626;2023-03-01T03:16:49;5.07;;;4.43;;
11604;SDS011;5858;43.076;25.626;2023-03-01T03:19:18;3.87;;;3.53;;
11604;SDS011;5858;43.076;25.626;2023-03-01T03:21:46;3.83;;;3.27;;
11604;SDS011;5858;43.076;25.626;2023-03-01T03:24:14;3.13;;;2.83;;
11604;SDS011;5858;43.076;25.626;2023-03-01T03:26:42;4.07;;;3.77;;
11604;SDS011;5858;43.076;25.626;2023-03-01T03:29:09;4.37;;;3.97;;
11604;SDS011;5858;43.076;25.626;2023-03-01T03:31:36;4.80;;;4.30;;
11604;SDS011;5858;43.076;25.626;2023-03-01T03:34:05;4.90;;;4.40;;
11604;SDS011;5858;43.076;25.626;2023-03-01T03:36:32;5.93;;;5.30;;
11604;SDS011;5858;43.076;25.626;2023-03-01T03:38:59;5.97;;;4.63;;
11604;SDS011;5858;43.076;25.626;2023-03-01T03:41:26;4.07;;;3.67;;
11604;SDS011;5858;43.076;25.626;2023-03-01T03:43:53;5.40;;;4.87;;
11604;SDS011;5858;43.076;25.626;2023-03-01T03:46:20;4.30;;;3.63;;
11604;SDS011;5858;43.076;25.626;2023-03-01T03:48:47;5.57;;;5.03;;
11604;SDS011;5858;43.076;25.626;2023-03-01T03:51:17;4.20;;;3.80;;
11604;SDS011;5858;43.076;25.626;2023-03-01T03:53:45;4.20;;;3.80;;
11604;SDS011;5858;43.076;25.626;2023-03-01T03:56:12;4.30;;;3.90;;
11604;SDS011;5858;43.076;25.626;2023-03-01T03:58:39;4.27;;;3.80;;
11604;SDS011;5858;43.076;25.626;2023-03-01T04:01:07;4.47;;;4.07;;
11604;SDS011;5858;43.076;25.626;2023-03-01T04:03:34;4.40;;;4.00;;
11604;SDS011;5858;43.076;25.626;2023-03-01T04:06:01;4.43;;;4.03;;
11604;SDS011;5858;43.076;25.626;2023-03-01T04:08:31;5.30;;;4.30;;
11604;SDS011;5858;43.076;25.626;2023-03-01T04:10:59;4.63;;;3.70;;
11604;SDS011;5858;43.076;25.626;2023-03-01T04:13:48;4.13;;;3.70;;
11604;SDS011;5858;43.076;25.626;2023-03-01T04:16:16;13.90;;;12.57;;
11604;SDS011;5858;43.076;25.626;2023-03-01T04:18:44;5.03;;;4.37;;
11604;SDS011;5858;43.076;25.626;2023-03-01T04:21:12;5.03;;;4.53;;
11604;SDS011;5858;43.076;25.626;2023-03-01T04:23:41;4.90;;;4.40;;
11604;SDS011;5858;43.076;25.626;2023-03-01T04:26:10;5.57;;;4.50;;
11604;SDS011;5858;43.076;25.626;2023-03-01T04:28:38;6.40;;;5.80;;
11604;SDS011;5858;43.076;25.626;2023-03-01T04:31:09;6.30;;;5.23;;
11604;SDS011;5858;43.076;25.626;2023-03-01T04:33:43;6.87;;;6.13;;
11604;SDS011;5858;43.076;25.626;2023-03-01T04:36:13;4.67;;;4.27;;
11604;SDS011;5858;43.076;25.626;2023-03-01T04:38:44;5.83;;;5.23;;
11604;SDS011;5858;43.076;25.626;2023-03-01T04:41:12;6.50;;;5.90;;
11604;SDS011;5858;43.076;25.626;2023-03-01T04:43:40;7.07;;;6.37;;
11604;SDS011;5858;43.076;25.626;2023-03-01T04:46:10;5.40;;;4.70;;
11604;SDS011;5858;43.076;25.626;2023-03-01T04:48:40;4.83;;;4.33;;
11604;SDS011;5858;43.076;25.626;2023-03-01T04:51:08;6.73;;;5.97;;
11604;SDS011;5858;43.076;25.626;2023-03-01T04:53:38;5.80;;;5.20;;
11604;SDS011;5858;43.076;25.626;2023-03-01T04:56:07;5.83;;;5.23;;
11604;SDS011;5858;43.076;25.626;2023-03-01T04:58:39;5.80;;;5.00;;
11604;SDS011;5858;43.076;25.626;2023-03-01T05:01:09;4.93;;;4.43;;
11604;SDS011;5858;43.076;25.626;2023-03-01T05:03:40;5.00;;;4.40;;
11604;SDS011;5858;43.076;25.626;2023-03-01T05:06:08;8.90;;;6.20;;
11604;SDS011;5858;43.076;25.626;2023-03-01T05:08:36;8.60;;;7.07;;
11604;SDS011;5858;43.076;25.626;2023-03-01T05:11:04;7.13;;;6.00;;
11604;SDS011;5858;43.076;25.626;2023-03-01T05:13:35;9.40;;;6.63;;
11604;SDS011;5858;43.076;25.626;2023-03-01T05:16:03;10.40;;;7.43;;
11604;SDS011;5858;43.076;25.626;2023-03-01T05:18:32;7.40;;;5.87;;
11604;SDS011;5858;43.076;25.626;2023-03-01T05:21:04;9.30;;;6.30;;
11604;SDS011;5858;43.076;25.626;2023-03-01T05:23:33;8.77;;;6.93;;
11604;SDS011;5858;43.076;25.626;2023-03-01T05:26:04;8.43;;;6.40;;
11604;SDS011;5858;43.076;25.626;2023-03-01T05:28:36;6.33;;;5.47;;
11604;SDS011;5858;43.076;25.626;2023-03-01T05:31:06;8.13;;;6.77;;
11604;SDS011;5858;43.076;25.626;2023-03-01T05:33:35;7.37;;;6.07;;
11604;SDS011;5858;43.076;25.626;2023-03-01T05:36:02;6.80;;;5.50;;
11604;SDS011;5858;43.076;25.626;2023-03-01T05:38:30;6.73;;;5.97;;
11604;SDS011;5858;43.076;25.626;2023-03-01T05:40:58;7.03;;;5.00;;
11604;SDS011;5858;43.076;25.626;2023-03-01T05:43:25;6.67;;;5.53;;
11604;SDS011;5858;43.076;25.626;2023-03-01T05:45:53;9.33;;;6.50;;
11604;SDS011;5858;43.076;25.626;2023-03-01T05:48:23;13.80;;;10.77;;
11604;SDS011;5858;43.076;25.626;2023-03-01T05:50:51;8.43;;;6.17;;
11604;SDS011;5858;43.076;25.626;2023-03-01T05:53:19;6.70;;;5.30;;
11604;SDS011;5858;43.076;25.626;2023-03-01T05:55:47;7.70;;;6.00;;
11604;SDS011;5858;43.076;25.626;2023-03-01T05:58:15;7.83;;;5.83;;
11604;SDS011;5858;43.076;25.626;2023-03-01T06:00:44;6.97;;;6.17;;
11604;SDS011;5858;43.076;25.626;2023-03-01T06:03:14;8.37;;;6.70;;
11604;SDS011;5858;43.076;25.626;2023-03-01T06:05:43;9.80;;;6.83;;
11604;SDS011;5858;43.076;25.626;2023-03-01T06:08:10;11.50;;;9.30;;
11604;SDS011;5858;43.076;25.626;2023-03-01T06:10:38;13.23;;;9.20;;
11604;SDS011;5858;43.076;25.626;2023-03-01T06:13:05;11.83;;;8.80;;
11604;SDS011;5858;43.076;25.626;2023-03-01T06:15:34;8.77;;;6.87;;
11604;SDS011;5858;43.076;25.626;2023-03-01T06:18:01;11.37;;;7.70;;
11604;SDS011;5858;43.076;25.626;2023-03-01T06:20:33;10.20;;;8.37;;
11604;SDS011;5858;43.076;25.626;2023-03-01T06:23:00;10.40;;;7.90;;
11604;SDS011;5858;43.076;25.626;2023-03-01T06:25:29;10.90;;;8.77;;
11604;SDS011;5858;43.076;25.626;2023-03-01T06:27:56;13.77;;;8.33;;
11604;SDS011;5858;43.076;25.626;2023-03-01T06:30:24;10.57;;;7.87;;
11604;SDS011;5858;43.076;25.626;2023-03-01T06:32:51;12.17;;;7.43;;
11604;SDS011;5858;43.076;25.626;2023-03-01T06:35:25;11.93;;;7.50;;
11604;SDS011;5858;43.076;25.626;2023-03-01T06:37:56;8.40;;;6.57;;
11604;SDS011;5858;43.076;25.626;2023-03-01T06:40:24;10.87;;;7.03;;
11604;SDS011;5858;43.076;25.626;2023-03-01T06:42:52;11.77;;;8.00;;
11604;SDS011;5858;43.076;25.626;2023-03-01T06:45:19;8.27;;;6.73;;
11604;SDS011;5858;43.076;25.626;2023-03-01T06:47:47;10.27;;;7.83;;
11604;SDS011;5858;43.076;25.626;2023-03-01T06:50:20;10.60;;;6.77;;
11604;SDS011;5858;43.076;25.626;2023-03-01T06:52:47;10.57;;;7.20;;
11604;SDS011;5858;43.076;25.626;2023-03-01T06:55:16;9.27;;;6.60;;
11604;SDS011;5858;43.076;25.626;2023-03-01T06:57:44;9.07;;;7.07;;
11604;SDS011;5858;43.076;25.626;2023-03-01T07:00:11;10.00;;;8.93;;
11604;SDS011;5858;43.076;25.626;2023-03-01T07:02:39;8.70;;;7.33;;
11604;SDS011;5858;43.076;25.626;2023-03-01T07:05:07;11.87;;;9.53;;
11604;SDS011;5858;43.076;25.626;2023-03-01T07:07:34;11.07;;;8.83;;
11604;SDS011;5858;43.076;25.626;2023-03-01T07:10:03;9.67;;;7.03;;
11604;SDS011;5858;43.076;25.626;2023-03-01T07:12:44;9.50;;;6.00;;
11604;SDS011;5858;43.076;25.626;2023-03-01T07:15:12;9.73;;;6.83;;
11604;SDS011;5858;43.076;25.626;2023-03-01T07:17:40;8.33;;;6.43;;
11604;SDS011;5858;43.076;25.626;2023-03-01T07:20:10;10.30;;;6.80;;
11604;SDS011;5858;43.076;25.626;2023-03-01T07:22:39;10.00;;;7.40;;
11604;SDS011;5858;43.076;25.626;2023-03-01T07:25:07;10.93;;;7.30;;
11604;SDS011;5858;43.076;25.626;2023-03-01T07:27:35;11.97;;;8.13;;
11604;SDS011;5858;43.076;25.626;2023-03-01T07:30:04;11.47;;;7.97;;
11604;SDS011;5858;43.076;25.626;2023-03-01T07:32:32;10.57;;;7.20;;
11604;SDS011;5858;43.076;25.626;2023-03-01T07:35:00;10.83;;;7.20;;
11604;SDS011;5858;43.076;25.626;2023-03-01T07:37:27;9.47;;;7.10;;
11604;SDS011;5858;43.076;25.626;2023-03-01T07:39:56;8.77;;;6.43;;
11604;SDS011;5858;43.076;25.626;2023-03-01T07:42:27;9.77;;;8.77;;
11604;SDS011;5858;43.076;25.626;2023-03-01T07:44:57;8.33;;;5.80;;
11604;SDS011;5858;43.076;25.626;2023-03-01T07:47:27;6.00;;;5.27;;
11604;SDS011;5858;43.076;25.626;2023-03-01T07:49:54;10.23;;;7.37;;
11604;SDS011;5858;43.076;25.626;2023-03-01T07:52:31;9.40;;;6.63;;
11604;SDS011;5858;43.076;25.626;2023-03-01T07:55:12;8.70;;;7.20;;
11604;SDS011;5858;43.076;25.626;2023-03-01T07:58:12;9.50;;;7.00;;
11604;SDS011;5858;43.076;25.626;2023-03-01T08:01:15;8.87;;;6.17;;
11604;SDS011;5858;43.076;25.626;2023-03-01T08:03:49;8.30;;;5.80;;
11604;SDS011;5858;43.076;25.626;2023-03-01T08:06:16;8.20;;;6.10;;
11604;SDS011;5858;43.076;25.626;2023-03-01T08:08:44;10.43;;;7.80;;
11604;SDS011;5858;43.076;25.626;2023-03-01T08:11:12;11.20;;;7.83;;
11604;SDS011;5858;43.076;25.626;2023-03-01T08:13:40;9.57;;;8.27;;
11604;SDS011;5858;43.076;25.626;2023-03-01T08:16:09;11.17;;;8.10;;
11604;SDS011;5858;43.076;25.626;2023-03-01T08:18:38;10.70;;;8.30;;
11604;SDS011;5858;43.076;25.626;2023-03-01T08:21:07;10.73;;;7.57;;
11604;SDS011;5858;43.076;25.626;2023-03-01T08:23:35;9.73;;;6.53;;
11604;SDS011;5858;43.076;25.626;2023-03-01T08:26:04;10.83;;;7.50;;
11604;SDS011;5858;43.076;25.626;2023-03-01T08:28:32;11.20;;;6.50;;
11604;SDS011;5858;43.076;25.626;2023-03-01T08:31:00;6.90;;;5.93;;
11604;SDS011;5858;43.076;25.626;2023-03-01T08:33:27;10.53;;;6.70;;
11604;SDS011;5858;43.076;25.626;2023-03-01T08:36:02;7.40;;;6.60;;
11604;SDS011;5858;43.076;25.626;2023-03-01T08:38:33;6.20;;;5.20;;
11604;SDS011;5858;43.076;25.626;2023-03-01T08:41:01;7.10;;;5.93;;
11604;SDS011;5858;43.076;25.626;2023-03-01T08:43:29;5.87;;;4.90;;
11604;SDS011;5858;43.076;25.626;2023-03-01T08:45:56;6.30;;;4.97;;
11604;SDS011;5858;43.076;25.626;2023-03-01T08:48:24;7.27;;;5.90;;
11604;SDS011;5858;43.076;25.626;2023-03-01T08:50:51;10.13;;;7.10;;
11604;SDS011;5858;43.076;25.626;2023-03-01T08:53:18;9.93;;;7.70;;
11604;SDS011;5858;43.076;25.626;2023-03-01T08:55:47;6.30;;;5.67;;
11604;SDS011;5858;43.076;25.626;2023-03-01T08:58:14;10.37;;;6.70;;
11604;SDS011;5858;43.076;25.626;2023-03-01T09:00:41;9.50;;;6.80;;
11604;SDS011;5858;43.076;25.626;2023-03-01T09:03:08;8.80;;;6.90;;
11604;SDS011;5858;43.076;25.626;2023-03-01T09:05:35;10.87;;;8.43;;
11604;SDS011;5858;43.076;25.626;2023-03-01T09:08:02;11.37;;;8.13;;
11604;SDS011;5858;43.076;25.626;2023-03-01T09:10:29;10.47;;;8.13;;
11604;SDS011;5858;43.076;25.626;2023-03-01T09:12:58;10.83;;;8.23;;
11604;SDS011;5858;43.076;25.626;2023-03-01T09:15:30;9.37;;;7.87;;
11604;SDS011;5858;43.076;25.626;2023-03-01T09:17:58;10.77;;;8.13;;
11604;SDS011;5858;43.076;25.626;2023-03-01T09:20:25;13.87;;;9.30;;
11604;SDS011;5858;43.076;25.626;2023-03-01T09:22:52;12.33;;;9.17;;
11604;SDS011;5858;43.076;25.626;2023-03-01T09:25:20;11.43;;;8.77;;
11604;SDS011;5858;43.076;25.626;2023-03-01T09:27:50;11.27;;;9.20;;
11604;SDS011;5858;43.076;25.626;2023-03-01T09:30:20;13.40;;;9.87;;
11604;SDS011;5858;43.076;25.626;2023-03-01T09:32:47;11.47;;;8.97;;
11604;SDS011;5858;43.076;25.626;2023-03-01T09:35:14;9.50;;;8.23;;
11604;SDS011;5858;43.076;25.626;2023-03-01T09:37:41;10.40;;;8.07;;
11604;SDS011;5858;43.076;25.626;2023-03-01T09:40:14;13.03;;;9.07;;
11604;SDS011;5858;43.076;25.626;2023-03-01T09:45:41;11.97;;;9.03;;
11604;SDS011;5858;43.076;25.626;2023-03-01T09:48:16;12.60;;;11.03;;
11604;SDS011;5858;43.076;25.626;2023-03-01T09:50:47;11.30;;;9.30;;
11604;SDS011;5858;43.076;25.626;2023-03-01T09:53:15;13.40;;;10.07;;
11604;SDS011;5858;43.076;25.626;2023-03-01T09:55:44;8.10;;;6.50;;
11604;SDS011;5858;43.076;25.626;2023-03-01T09:58:25;7.07;;;5.90;;
11604;SDS011;5858;43.076;25.626;2023-03-01T10:01:06;7.00;;;5.93;;
11604;SDS011;5858;43.076;25.626;2023-03-01T10:03:57;8.20;;;6.47;;
11604;SDS011;5858;43.076;25.626;2023-03-01T10:06:39;8.33;;;6.20;;
11604;SDS011;5858;43.076;25.626;2023-03-01T10:09:18;10.37;;;7.97;;
11604;SDS011;5858;43.076;25.626;2023-03-01T10:11:47;7.40;;;6.33;;
11604;SDS011;5858;43.076;25.626;2023-03-01T10:14:19;15.27;;;9.10;;
11604;SDS011;5858;43.076;25.626;2023-03-01T10:16:59;8.60;;;6.97;;
11604;SDS011;5858;43.076;25.626;2023-03-01T10:19:30;9.87;;;6.20;;
11604;SDS011;5858;43.076;25.626;2023-03-01T10:22:02;10.10;;;7.90;;
11604;SDS011;5858;43.076;25.626;2023-03-01T10:24:36;9.73;;;7.13;;
11604;SDS011;5858;43.076;25.626;2023-03-01T10:27:07;8.90;;;7.23;;
11604;SDS011;5858;43.076;25.626;2023-03-01T10:29:39;7.87;;;6.17;;
11604;SDS011;5858;43.076;25.626;2023-03-01T10:32:19;7.27;;;6.43;;
11604;SDS011;5858;43.076;25.626;2023-03-01T10:34:52;8.03;;;6.07;;
11604;SDS011;5858;43.076;25.626;2023-03-01T10:37:26;9.40;;;6.30;;
11604;SDS011;5858;43.076;25.626;2023-03-01T10:40:18;8.23;;;6.03;;
11604;SDS011;5858;43.076;25.626;2023-03-01T10:42:48;10.83;;;6.80;;
11604;SDS011;5858;43.076;25.626;2023-03-01T10:45:26;10.13;;;6.00;;
11604;SDS011;5858;43.076;25.626;2023-03-01T10:48:10;8.13;;;5.93;;
11604;SDS011;5858;43.076;25.626;2023-03-01T10:50:43;10.47;;;6.87;;
11604;SDS011;5858;43.076;25.626;2023-03-01T10:53:40;10.30;;;8.40;;
11604;SDS011;5858;43.076;25.626;2023-03-01T10:56:08;8.07;;;6.37;;
11604;SDS011;5858;43.076;25.626;2023-03-01T10:58:40;9.00;;;5.53;;
11604;SDS011;5858;43.076;25.626;2023-03-01T11:01:24;10.03;;;7.40;;
11604;SDS011;5858;43.076;25.626;2023-03-01T11:07:13;8.43;;;6.40;;
11604;SDS011;5858;43.076;25.626;2023-03-01T11:10:17;8.57;;;6.17;;
11604;SDS011;5858;43.076;25.626;2023-03-01T11:13:14;9.73;;;7.37;;
11604;SDS011;5858;43.076;25.626;2023-03-01T11:16:05;9.93;;;6.40;;
11604;SDS011;5858;43.076;25.626;2023-03-01T11:18:43;7.00;;;5.67;;
11604;SDS011;5858;43.076;25.626;2023-03-01T11:21:26;6.13;;;5.33;;
11604;SDS011;5858;43.076;25.626;2023-03-01T11:23:59;9.27;;;6.87;;
11604;SDS011;5858;43.076;25.626;2023-03-01T11:26:30;7.90;;;6.40;;
11604;SDS011;5858;43.076;25.626;2023-03-01T11:32:01;7.87;;;5.80;;
11604;SDS011;5858;43.076;25.626;2023-03-01T11:34:38;11.43;;;7.40;;
11604;SDS011;5858;43.076;25.626;2023-03-01T11:37:12;8.80;;;5.37;;
11604;SDS011;5858;43.076;25.626;2023-03-01T11:39:55;7.27;;;5.67;;
11604;SDS011;5858;43.076;25.626;2023-03-01T11:42:39;6.23;;;4.97;;
11604;SDS011;5858;43.076;25.626;2023-03-01T11:45:13;7.47;;;5.43;;
11604;SDS011;5858;43.076;25.626;2023-03-01T11:47:50;7.63;;;5.93;;
11604;SDS011;5858;43.076;25.626;2023-03-01T11:50:40;8.57;;;5.87;;
11604;SDS011;5858;43.076;25.626;2023-03-01T11:53:26;10.10;;;7.10;;
11604;SDS011;5858;43.076;25.626;2023-03-01T11:56:16;7.57;;;6.63;;
11604;SDS011;5858;43.076;25.626;2023-03-01T11:59:07;7.20;;;5.80;;
11604;SDS011;5858;43.076;25.626;2023-03-01T12:01:50;6.57;;;5.60;;
11604;SDS011;5858;43.076;25.626;2023-03-01T12:07:37;7.83;;;7.03;;
11604;SDS011;5858;43.076;25.626;2023-03-01T12:10:23;7.13;;;5.73;;
11604;SDS011;5858;43.076;25.626;2023-03-01T12:13:02;6.87;;;5.23;;
11604;SDS011;5858;43.076;25.626;2023-03-01T12:15:54;6.40;;;5.00;;
11604;SDS011;5858;43.076;25.626;2023-03-01T12:18:46;8.83;;;6.20;;
11604;SDS011;5858;43.076;25.626;2023-03-01T12:21:31;8.73;;;6.80;;
11604;SDS011;5858;43.076;25.626;2023-03-01T12:24:16;11.33;;;6.67;;
11604;SDS011;5858;43.076;25.626;2023-03-01T12:27:17;8.03;;;6.30;;
11604;SDS011;5858;43.076;25.626;2023-03-01T12:30:09;7.87;;;5.80;;
11604;SDS011;5858;43.076;25.626;2023-03-01T12:32:54;10.37;;;6.97;;
11604;SDS011;5858;43.076;25.626;2023-03-01T12:35:50;10.40;;;7.40;;
11604;SDS011;5858;43.076;25.626;2023-03-01T12:38:37;12.13;;;7.43;;
11604;SDS011;5858;43.076;25.626;2023-03-01T12:41:15;9.93;;;6.60;;
11604;SDS011;5858;43.076;25.626;2023-03-01T12:44:01;8.20;;;6.40;;
11604;SDS011;5858;43.076;25.626;2023-03-01T12:46:48;8.43;;;5.70;;
11604;SDS011;5858;43.076;25.626;2023-03-01T12:49:30;8.23;;;6.83;;
11604;SDS011;5858;43.076;25.626;2023-03-01T12:52:03;9.07;;;6.53;;
11604;SDS011;5858;43.076;25.626;2023-03-01T12:54:40;12.80;;;7.33;;
11604;SDS011;5858;43.076;25.626;2023-03-01T12:57:12;9.83;;;8.03;;
11604;SDS011;5858;43.076;25.626;2023-03-01T12:59:50;12.47;;;8.77;;
11604;SDS011;5858;43.076;25.626;2023-03-01T13:02:35;12.20;;;9.57;;
11604;SDS011;5858;43.076;25.626;2023-03-01T13:05:19;13.03;;;10.33;;
11604;SDS011;5858;43.076;25.626;2023-03-01T13:07:55;12.33;;;9.60;;
11604;SDS011;5858;43.076;25.626;2023-03-01T13:10:31;13.57;;;9.97;;
11604;SDS011;5858;43.076;25.626;2023-03-01T13:13:12;10.57;;;9.43;;
11604;SDS011;5858;43.076;25.626;2023-03-01T13:15:45;14.70;;;11.07;;
11604;SDS011;5858;43.076;25.626;2023-03-01T13:18:31;14.67;;;11.73;;
11604;SDS011;5858;43.076;25.626;2023-03-01T13:21:05;15.47;;;12.13;;
11604;SDS011;5858;43.076;25.626;2023-03-01T13:23:35;13.43;;;10.27;;
11604;SDS011;5858;43.076;25.626;2023-03-01T13:26:16;12.40;;;9.50;;
11604;SDS011;5858;43.076;25.626;2023-03-01T13:28:48;12.73;;;9.83;;
11604;SDS011;5858;43.076;25.626;2023-03-01T13:37:18;13.93;;;9.70;;
11604;SDS011;5858;43.076;25.626;2023-03-01T13:39:56;14.90;;;9.33;;
11604;SDS011;5858;43.076;25.626;2023-03-01T13:45:21;13.37;;;9.90;;
11604;SDS011;5858;43.076;25.626;2023-03-01T13:47:56;15.73;;;9.47;;
11604;SDS011;5858;43.076;25.626;2023-03-01T13:50:29;12.93;;;8.50;;
11604;SDS011;5858;43.076;25.626;2023-03-01T13:53:03;13.00;;;9.90;;
11604;SDS011;5858;43.076;25.626;2023-03-01T13:55:36;12.90;;;9.93;;
11604;SDS011;5858;43.076;25.626;2023-03-01T13:58:15;13.07;;;10.40;;
11604;SDS011;5858;43.076;25.626;2023-03-01T14:00:46;15.07;;;9.63;;
11604;SDS011;5858;43.076;25.626;2023-03-01T14:03:14;10.40;;;8.03;;
11604;SDS011;5858;43.076;25.626;2023-03-01T14:05:44;16.37;;;10.20;;
11604;SDS011;5858;43.076;25.626;2023-03-01T14:08:29;13.30;;;7.43;;
11604;SDS011;5858;43.076;25.626;2023-03-01T14:11:04;12.13;;;7.67;;
11604;SDS011;5858;43.076;25.626;2023-03-01T14:17:08;9.57;;;6.93;;
11604;SDS011;5858;43.076;25.626;2023-03-01T14:20:07;9.73;;;6.40;;
11604;SDS011;5858;43.076;25.626;2023-03-01T14:22:42;13.10;;;7.23;;
11604;SDS011;5858;43.076;25.626;2023-03-01T14:25:19;12.67;;;8.70;;
11604;SDS011;5858;43.076;25.626;2023-03-01T14:27:58;11.13;;;8.03;;
11604;SDS011;5858;43.076;25.626;2023-03-01T14:30:34;10.53;;;7.13;;
11604;SDS011;5858;43.076;25.626;2023-03-01T14:33:17;9.60;;;6.87;;
11604;SDS011;5858;43.076;25.626;2023-03-01T14:35:56;16.20;;;11.20;;
11604;SDS011;5858;43.076;25.626;2023-03-01T14:38:36;12.80;;;8.87;;
11604;SDS011;5858;43.076;25.626;2023-03-01T14:41:05;14.27;;;9.73;;
11604;SDS011;5858;43.076;25.626;2023-03-01T14:43:43;16.67;;;9.10;;
11604;SDS011;5858;43.076;25.626;2023-03-01T14:46:31;20.40;;;16.33;;
11604;SDS011;5858;43.076;25.626;2023-03-01T14:49:01;15.93;;;12.50;;
11604;SDS011;5858;43.076;25.626;2023-03-01T14:51:51;15.10;;;12.27;;
11604;SDS011;5858;43.076;25.626;2023-03-01T14:54:31;14.60;;;9.67;;
11604;SDS011;5858;43.076;25.626;2023-03-01T14:57:12;13.67;;;9.30;;
11604;SDS011;5858;43.076;25.626;2023-03-01T14:59:41;19.73;;;9.57;;
11604;SDS011;5858;43.076;25.626;2023-03-01T15:02:11;15.23;;;9.23;;
11604;SDS011;5858;43.076;25.626;2023-03-01T15:04:42;17.63;;;13.20;;
11604;SDS011;5858;43.076;25.626;2023-03-01T15:07:15;14.13;;;8.70;;
11604;SDS011;5858;43.076;25.626;2023-03-01T15:09:46;13.77;;;9.40;;
11604;SDS011;5858;43.076;25.626;2023-03-01T15:12:34;17.90;;;10.63;;
11604;SDS011;5858;43.076;25.626;2023-03-01T15:18:12;16.37;;;10.80;;
11604;SDS011;5858;43.076;25.626;2023-03-01T15:20:42;17.47;;;13.13;;
11604;SDS011;5858;43.076;25.626;2023-03-01T15:23:18;14.90;;;9.27;;
11604;SDS011;5858;43.076;25.626;2023-03-01T15:25:50;15.07;;;9.43;;
11604;SDS011;5858;43.076;25.626;2023-03-01T15:28:22;13.93;;;9.93;;
11604;SDS011;5858;43.076;25.626;2023-03-01T15:30:57;15.20;;;10.97;;
11604;SDS011;5858;43.076;25.626;2023-03-01T15:33:29;12.47;;;9.37;;
11604;SDS011;5858;43.076;25.626;2023-03-01T15:36:02;16.73;;;11.00;;
11604;SDS011;5858;43.076;25.626;2023-03-01T15:38:51;20.47;;;12.37;;
11604;SDS011;5858;43.076;25.626;2023-03-01T15:41:23;18.60;;;14.73;;
11604;SDS011;5858;43.076;25.626;2023-03-01T15:43:52;24.97;;;17.40;;